sensor_id;sensor_type;location;lat;lon;timestamp;temperature;humidity
64937;SHT30;51452;47.698;19.050;2024-01-27T00:02:17;6.28;85.61
64937;SHT30;51452;47.698;19.050;2024-01-27T00:04:42;6.31;85.80
64937;SHT30;51452;47.698;19.050;2024-01-27T00:07:08;6.24;85.98
64937;SHT30;51452;47.698;19.050;2024-01-27T00:09:33;6.31;85.49
64937;SHT30;51452;47.698;19.050;2024-01-27T00:11:59;6.28;84.63
64937;SHT30;51452;47.698;19.050;2024-01-27T00:14:24;6.31;84.62
64937;SHT30;51452;47.698;19.050;2024-01-27T00:16:49;6.32;83.40
64937;SHT30;51452;47.698;19.050;2024-01-27T00:19:15;6.31;83.48
64937;SHT30;51452;47.698;19.050;2024-01-27T00:21:41;6.37;82.68
64937;SHT30;51452;47.698;19.050;2024-01-27T00:24:06;6.34;82.29
64937;SHT30;51452;47.698;19.050;2024-01-27T00:26:32;6.40;81.37
64937;SHT30;51452;47.698;19.050;2024-01-27T00:28:57;6.40;81.41
64937;SHT30;51452;47.698;19.050;2024-01-27T00:31:22;6.37;81.86
64937;SHT30;51452;47.698;19.050;2024-01-27T00:33:48;6.37;81.40
64937;SHT30;51452;47.698;19.050;2024-01-27T00:36:13;6.35;81.56
64937;SHT30;51452;47.698;19.050;2024-01-27T00:38:39;6.40;80.99
64937;SHT30;51452;47.698;19.050;2024-01-27T00:41:04;6.37;81.72
64937;SHT30;51452;47.698;19.050;2024-01-27T00:43:30;6.38;83.12
64937;SHT30;51452;47.698;19.050;2024-01-27T00:45:55;6.27;82.64
64937;SHT30;51452;47.698;19.050;2024-01-27T00:48:21;6.27;82.33
64937;SHT30;51452;47.698;19.050;2024-01-27T00:50:47;6.28;82.65
64937;SHT30;51452;47.698;19.050;2024-01-27T00:53:13;6.30;82.00
64937;SHT30;51452;47.698;19.050;2024-01-27T00:55:38;6.31;81.24
64937;SHT30;51452;47.698;19.050;2024-01-27T00:58:04;6.24;80.67
64937;SHT30;51452;47.698;19.050;2024-01-27T01:00:29;6.18;79.75
64937;SHT30;51452;47.698;19.050;2024-01-27T01:02:54;6.21;79.77
64937;SHT30;51452;47.698;19.050;2024-01-27T01:05:20;6.27;79.71
64937;SHT30;51452;47.698;19.050;2024-01-27T01:07:45;6.22;78.69
64937;SHT30;51452;47.698;19.050;2024-01-27T01:10:10;6.18;78.42
64937;SHT30;51452;47.698;19.050;2024-01-27T01:12:36;6.21;78.66
64937;SHT30;51452;47.698;19.050;2024-01-27T01:15:02;6.16;77.47
64937;SHT30;51452;47.698;19.050;2024-01-27T01:17:27;6.17;76.76
64937;SHT30;51452;47.698;19.050;2024-01-27T01:19:53;6.14;75.41
64937;SHT30;51452;47.698;19.050;2024-01-27T01:22:18;6.21;77.00
64937;SHT30;51452;47.698;19.050;2024-01-27T01:24:44;6.16;77.15
64937;SHT30;51452;47.698;19.050;2024-01-27T01:27:09;6.09;76.66
64937;SHT30;51452;47.698;19.050;2024-01-27T01:29:34;6.11;77.24
64937;SHT30;51452;47.698;19.050;2024-01-27T01:32:00;6.04;76.60
64937;SHT30;51452;47.698;19.050;2024-01-27T01:34:28;6.06;76.46
64937;SHT30;51452;47.698;19.050;2024-01-27T01:36:54;6.03;76.49
64937;SHT30;51452;47.698;19.050;2024-01-27T01:39:20;6.06;76.23
64937;SHT30;51452;47.698;19.050;2024-01-27T01:41:45;6.06;75.45
64937;SHT30;51452;47.698;19.050;2024-01-27T01:44:10;6.03;75.84
64937;SHT30;51452;47.698;19.050;2024-01-27T01:46:36;6.06;75.58
64937;SHT30;51452;47.698;19.050;2024-01-27T01:49:02;6.04;75.10
64937;SHT30;51452;47.698;19.050;2024-01-27T01:51:28;6.06;75.06
64937;SHT30;51452;47.698;19.050;2024-01-27T01:53:57;5.99;74.56
64937;SHT30;51452;47.698;19.050;2024-01-27T01:56:23;6.06;74.79
64937;SHT30;51452;47.698;19.050;2024-01-27T01:58:49;6.01;74.35
64937;SHT30;51452;47.698;19.050;2024-01-27T02:01:14;6.03;73.93
64937;SHT30;51452;47.698;19.050;2024-01-27T02:03:54;6.04;74.09
64937;SHT30;51452;47.698;19.050;2024-01-27T02:06:19;5.99;73.06
64937;SHT30;51452;47.698;19.050;2024-01-27T02:08:45;5.96;73.11
64937;SHT30;51452;47.698;19.050;2024-01-27T02:11:10;5.99;72.22
64937;SHT30;51452;47.698;19.050;2024-01-27T02:13:35;5.97;72.22
64937;SHT30;51452;47.698;19.050;2024-01-27T02:16:01;5.90;71.93
64937;SHT30;51452;47.698;19.050;2024-01-27T02:18:26;5.91;72.25
64937;SHT30;51452;47.698;19.050;2024-01-27T02:20:52;5.89;71.29
64937;SHT30;51452;47.698;19.050;2024-01-27T02:23:17;5.90;71.46
64937;SHT30;51452;47.698;19.050;2024-01-27T02:25:42;5.87;70.82
64937;SHT30;51452;47.698;19.050;2024-01-27T02:28:08;5.83;69.83
64937;SHT30;51452;47.698;19.050;2024-01-27T02:30:33;5.83;69.88
64937;SHT30;51452;47.698;19.050;2024-01-27T02:33:02;5.83;69.99
64937;SHT30;51452;47.698;19.050;2024-01-27T02:35:27;5.85;69.73
64937;SHT30;51452;47.698;19.050;2024-01-27T02:37:53;5.76;69.09
64937;SHT30;51452;47.698;19.050;2024-01-27T02:40:18;5.79;69.13
64937;SHT30;51452;47.698;19.050;2024-01-27T02:42:43;5.80;68.82
64937;SHT30;51452;47.698;19.050;2024-01-27T02:45:10;5.74;67.88
64937;SHT30;51452;47.698;19.050;2024-01-27T02:47:37;5.73;68.00
64937;SHT30;51452;47.698;19.050;2024-01-27T02:50:03;5.69;68.48
64937;SHT30;51452;47.698;19.050;2024-01-27T02:52:29;5.65;67.57
64937;SHT30;51452;47.698;19.050;2024-01-27T02:54:55;5.66;67.89
64937;SHT30;51452;47.698;19.050;2024-01-27T02:57:21;5.60;67.23
64937;SHT30;51452;47.698;19.050;2024-01-27T02:59:46;5.59;67.11
64937;SHT30;51452;47.698;19.050;2024-01-27T03:02:12;5.58;67.08
64937;SHT30;51452;47.698;19.050;2024-01-27T03:04:37;5.62;67.18
64937;SHT30;51452;47.698;19.050;2024-01-27T03:07:03;5.53;66.98
64937;SHT30;51452;47.698;19.050;2024-01-27T03:09:29;5.53;66.94
64937;SHT30;51452;47.698;19.050;2024-01-27T03:11:55;5.50;67.16
64937;SHT30;51452;47.698;19.050;2024-01-27T03:14:21;5.48;67.16
64937;SHT30;51452;47.698;19.050;2024-01-27T03:16:46;5.48;66.86
64937;SHT30;51452;47.698;19.050;2024-01-27T03:19:12;5.46;66.74
64937;SHT30;51452;47.698;19.050;2024-01-27T03:21:37;5.46;66.77
64937;SHT30;51452;47.698;19.050;2024-01-27T03:24:03;5.40;66.47
64937;SHT30;51452;47.698;19.050;2024-01-27T03:26:28;5.38;66.53
64937;SHT30;51452;47.698;19.050;2024-01-27T03:28:54;5.39;66.48
64937;SHT30;51452;47.698;19.050;2024-01-27T03:31:19;5.40;66.90
64937;SHT30;51452;47.698;19.050;2024-01-27T03:33:44;5.43;67.12
64937;SHT30;51452;47.698;19.050;2024-01-27T03:36:11;5.36;67.52
64937;SHT30;51452;47.698;19.050;2024-01-27T03:38:37;5.39;67.44
64937;SHT30;51452;47.698;19.050;2024-01-27T03:41:03;5.38;67.86
64937;SHT30;51452;47.698;19.050;2024-01-27T03:43:28;5.32;67.58
64937;SHT30;51452;47.698;19.050;2024-01-27T03:45:55;5.28;67.67
64937;SHT30;51452;47.698;19.050;2024-01-27T03:48:21;5.29;67.27
64937;SHT30;51452;47.698;19.050;2024-01-27T03:50:46;5.29;67.40
64937;SHT30;51452;47.698;19.050;2024-01-27T03:53:11;5.28;67.47
64937;SHT30;51452;47.698;19.050;2024-01-27T03:55:37;5.28;67.79
64937;SHT30;51452;47.698;19.050;2024-01-27T03:58:02;5.25;68.13
64937;SHT30;51452;47.698;19.050;2024-01-27T04:00:28;5.22;67.79
64937;SHT30;51452;47.698;19.050;2024-01-27T04:02:55;5.21;68.11
64937;SHT30;51452;47.698;19.050;2024-01-27T04:05:20;5.15;67.80
64937;SHT30;51452;47.698;19.050;2024-01-27T04:07:46;5.17;67.70
64937;SHT30;51452;47.698;19.050;2024-01-27T04:10:11;5.19;67.45
64937;SHT30;51452;47.698;19.050;2024-01-27T04:12:37;5.17;66.93
64937;SHT30;51452;47.698;19.050;2024-01-27T04:15:05;5.14;66.74
64937;SHT30;51452;47.698;19.050;2024-01-27T04:17:31;5.15;66.03
64937;SHT30;51452;47.698;19.050;2024-01-27T04:19:56;5.17;66.67
64937;SHT30;51452;47.698;19.050;2024-01-27T04:22:22;5.08;65.46
64937;SHT30;51452;47.698;19.050;2024-01-27T04:24:47;5.17;64.51
64937;SHT30;51452;47.698;19.050;2024-01-27T04:27:13;5.18;64.43
64937;SHT30;51452;47.698;19.050;2024-01-27T04:29:38;5.18;64.49
64937;SHT30;51452;47.698;19.050;2024-01-27T04:32:04;5.11;64.41
64937;SHT30;51452;47.698;19.050;2024-01-27T04:34:31;5.07;64.77
64937;SHT30;51452;47.698;19.050;2024-01-27T04:36:57;5.05;64.83
64937;SHT30;51452;47.698;19.050;2024-01-27T04:39:22;5.08;62.05
64937;SHT30;51452;47.698;19.050;2024-01-27T04:41:48;5.08;63.52
64937;SHT30;51452;47.698;19.050;2024-01-27T04:44:13;5.09;63.81
64937;SHT30;51452;47.698;19.050;2024-01-27T04:46:38;5.12;64.17
64937;SHT30;51452;47.698;19.050;2024-01-27T04:49:04;5.09;64.25
64937;SHT30;51452;47.698;19.050;2024-01-27T04:51:29;5.05;64.89
64937;SHT30;51452;47.698;19.050;2024-01-27T04:53:54;5.04;66.31
64937;SHT30;51452;47.698;19.050;2024-01-27T04:56:20;5.00;66.87
64937;SHT30;51452;47.698;19.050;2024-01-27T04:58:45;4.97;66.12
64937;SHT30;51452;47.698;19.050;2024-01-27T05:01:11;4.94;66.72
64937;SHT30;51452;47.698;19.050;2024-01-27T05:03:36;5.04;66.60
64937;SHT30;51452;47.698;19.050;2024-01-27T05:06:02;4.90;66.01
64937;SHT30;51452;47.698;19.050;2024-01-27T05:08:28;4.94;66.19
64937;SHT30;51452;47.698;19.050;2024-01-27T05:10:53;4.91;65.24
64937;SHT30;51452;47.698;19.050;2024-01-27T05:13:19;4.91;64.61
64937;SHT30;51452;47.698;19.050;2024-01-27T05:15:44;4.87;64.72
64937;SHT30;51452;47.698;19.050;2024-01-27T05:18:10;4.87;63.67
64937;SHT30;51452;47.698;19.050;2024-01-27T05:20:35;4.90;64.56
64937;SHT30;51452;47.698;19.050;2024-01-27T05:23:00;4.84;64.42
64937;SHT30;51452;47.698;19.050;2024-01-27T05:25:26;4.78;64.79
64937;SHT30;51452;47.698;19.050;2024-01-27T05:27:51;4.80;65.26
64937;SHT30;51452;47.698;19.050;2024-01-27T05:30:17;4.80;65.16
64937;SHT30;51452;47.698;19.050;2024-01-27T05:32:42;4.76;65.11
64937;SHT30;51452;47.698;19.050;2024-01-27T05:35:08;4.74;65.36
64937;SHT30;51452;47.698;19.050;2024-01-27T05:37:34;4.74;64.92
64937;SHT30;51452;47.698;19.050;2024-01-27T05:40:00;4.78;64.92
64937;SHT30;51452;47.698;19.050;2024-01-27T05:42:25;4.70;64.44
64937;SHT30;51452;47.698;19.050;2024-01-27T05:44:51;4.69;64.80
64937;SHT30;51452;47.698;19.050;2024-01-27T05:47:16;4.73;64.84
64937;SHT30;51452;47.698;19.050;2024-01-27T05:49:42;4.71;64.19
64937;SHT30;51452;47.698;19.050;2024-01-27T05:52:07;4.70;64.10
64937;SHT30;51452;47.698;19.050;2024-01-27T05:54:32;4.63;63.81
64937;SHT30;51452;47.698;19.050;2024-01-27T05:56:58;4.69;64.00
64937;SHT30;51452;47.698;19.050;2024-01-27T05:59:23;4.61;63.15
64937;SHT30;51452;47.698;19.050;2024-01-27T06:01:49;4.67;62.24
64937;SHT30;51452;47.698;19.050;2024-01-27T06:04:14;4.67;63.06
64937;SHT30;51452;47.698;19.050;2024-01-27T06:06:40;4.73;62.78
64937;SHT30;51452;47.698;19.050;2024-01-27T06:09:07;4.71;62.08
64937;SHT30;51452;47.698;19.050;2024-01-27T06:11:42;4.67;61.83
64937;SHT30;51452;47.698;19.050;2024-01-27T06:14:07;4.69;61.43
64937;SHT30;51452;47.698;19.050;2024-01-27T06:16:33;4.67;60.85
64937;SHT30;51452;47.698;19.050;2024-01-27T06:19:00;4.71;60.55
64937;SHT30;51452;47.698;19.050;2024-01-27T06:21:25;4.73;60.60
64937;SHT30;51452;47.698;19.050;2024-01-27T06:23:50;4.70;60.40
64937;SHT30;51452;47.698;19.050;2024-01-27T06:26:16;4.71;60.50
64937;SHT30;51452;47.698;19.050;2024-01-27T06:28:41;4.71;60.18
64937;SHT30;51452;47.698;19.050;2024-01-27T06:31:07;4.71;60.45
64937;SHT30;51452;47.698;19.050;2024-01-27T06:33:34;4.74;61.13
64937;SHT30;51452;47.698;19.050;2024-01-27T06:36:00;4.70;60.88
64937;SHT30;51452;47.698;19.050;2024-01-27T06:38:27;4.69;60.79
64937;SHT30;51452;47.698;19.050;2024-01-27T06:40:53;4.66;61.38
64937;SHT30;51452;47.698;19.050;2024-01-27T06:43:19;4.74;62.03
64937;SHT30;51452;47.698;19.050;2024-01-27T06:45:44;4.71;62.04
64937;SHT30;51452;47.698;19.050;2024-01-27T06:48:09;4.78;61.87
64937;SHT30;51452;47.698;19.050;2024-01-27T06:50:35;4.77;61.55
64937;SHT30;51452;47.698;19.050;2024-01-27T06:53:01;4.74;60.79
64937;SHT30;51452;47.698;19.050;2024-01-27T06:55:26;4.80;60.87
64937;SHT30;51452;47.698;19.050;2024-01-27T06:57:52;4.85;60.08
64937;SHT30;51452;47.698;19.050;2024-01-27T07:00:18;4.85;59.93
64937;SHT30;51452;47.698;19.050;2024-01-27T07:02:43;4.92;59.62
64937;SHT30;51452;47.698;19.050;2024-01-27T07:05:09;5.02;59.84
64937;SHT30;51452;47.698;19.050;2024-01-27T07:07:35;4.95;59.08
64937;SHT30;51452;47.698;19.050;2024-01-27T07:10:01;5.05;59.65
64937;SHT30;51452;47.698;19.050;2024-01-27T07:12:27;5.02;58.89
64937;SHT30;51452;47.698;19.050;2024-01-27T07:14:53;5.01;59.86
64937;SHT30;51452;47.698;19.050;2024-01-27T07:17:20;5.04;59.93
64937;SHT30;51452;47.698;19.050;2024-01-27T07:19:46;5.11;59.88
64937;SHT30;51452;47.698;19.050;2024-01-27T07:22:11;5.07;60.14
64937;SHT30;51452;47.698;19.050;2024-01-27T07:24:37;5.11;60.77
64937;SHT30;51452;47.698;19.050;2024-01-27T07:27:02;5.14;60.76
64937;SHT30;51452;47.698;19.050;2024-01-27T07:29:29;5.18;61.22
64937;SHT30;51452;47.698;19.050;2024-01-27T07:31:55;5.19;61.25
64937;SHT30;51452;47.698;19.050;2024-01-27T07:34:20;5.27;61.88
64937;SHT30;51452;47.698;19.050;2024-01-27T07:36:46;5.19;61.99
64937;SHT30;51452;47.698;19.050;2024-01-27T07:39:13;5.17;62.26
64937;SHT30;51452;47.698;19.050;2024-01-27T07:41:38;5.19;62.45
64937;SHT30;51452;47.698;19.050;2024-01-27T07:44:11;5.21;62.23
64937;SHT30;51452;47.698;19.050;2024-01-27T07:46:41;5.31;62.66
64937;SHT30;51452;47.698;19.050;2024-01-27T07:49:07;5.49;62.73
64937;SHT30;51452;47.698;19.050;2024-01-27T07:51:33;5.46;62.36
64937;SHT30;51452;47.698;19.050;2024-01-27T07:53:59;5.46;62.36
64937;SHT30;51452;47.698;19.050;2024-01-27T07:56:25;5.46;62.46
64937;SHT30;51452;47.698;19.050;2024-01-27T07:58:51;5.52;62.54
64937;SHT30;51452;47.698;19.050;2024-01-27T08:01:18;5.70;62.32
64937;SHT30;51452;47.698;19.050;2024-01-27T08:03:43;5.58;62.62
64937;SHT30;51452;47.698;19.050;2024-01-27T08:06:16;5.58;62.77
64937;SHT30;51452;47.698;19.050;2024-01-27T08:08:48;5.56;62.72
64937;SHT30;51452;47.698;19.050;2024-01-27T08:11:17;5.55;63.22
64937;SHT30;51452;47.698;19.050;2024-01-27T08:13:43;5.56;63.11
64937;SHT30;51452;47.698;19.050;2024-01-27T08:16:09;5.58;62.89
64937;SHT30;51452;47.698;19.050;2024-01-27T08:18:36;5.52;63.18
64937;SHT30;51452;47.698;19.050;2024-01-27T08:21:03;5.58;63.29
64937;SHT30;51452;47.698;19.050;2024-01-27T08:23:29;5.59;63.15
64937;SHT30;51452;47.698;19.050;2024-01-27T08:25:54;5.59;62.54
64937;SHT30;51452;47.698;19.050;2024-01-27T08:28:20;5.55;63.22
64937;SHT30;51452;47.698;19.050;2024-01-27T08:30:45;5.52;63.12
64937;SHT30;51452;47.698;19.050;2024-01-27T08:33:11;5.52;63.16
64937;SHT30;51452;47.698;19.050;2024-01-27T08:35:36;5.60;63.43
64937;SHT30;51452;47.698;19.050;2024-01-27T08:38:02;5.62;62.64
64937;SHT30;51452;47.698;19.050;2024-01-27T08:40:29;5.52;63.63
64937;SHT30;51452;47.698;19.050;2024-01-27T08:42:54;5.65;62.99
64937;SHT30;51452;47.698;19.050;2024-01-27T08:45:20;5.74;62.79
64937;SHT30;51452;47.698;19.050;2024-01-27T08:47:46;5.86;63.08
64937;SHT30;51452;47.698;19.050;2024-01-27T08:50:11;5.85;62.48
64937;SHT30;51452;47.698;19.050;2024-01-27T08:52:37;5.91;62.19
64937;SHT30;51452;47.698;19.050;2024-01-27T08:55:02;6.01;62.55
64937;SHT30;51452;47.698;19.050;2024-01-27T08:57:28;6.11;61.04
64937;SHT30;51452;47.698;19.050;2024-01-27T08:59:53;5.99;60.50
64937;SHT30;51452;47.698;19.050;2024-01-27T09:02:19;6.21;61.61
64937;SHT30;51452;47.698;19.050;2024-01-27T09:04:44;6.20;61.79
64937;SHT30;51452;47.698;19.050;2024-01-27T09:07:11;6.22;61.29
64937;SHT30;51452;47.698;19.050;2024-01-27T09:09:36;6.27;61.19
64937;SHT30;51452;47.698;19.050;2024-01-27T09:12:03;6.24;61.12
64937;SHT30;51452;47.698;19.050;2024-01-27T09:14:28;6.21;61.05
64937;SHT30;51452;47.698;19.050;2024-01-27T09:16:54;6.25;60.67
64937;SHT30;51452;47.698;19.050;2024-01-27T09:19:19;6.41;61.07
64937;SHT30;51452;47.698;19.050;2024-01-27T09:21:45;6.46;60.42
64937;SHT30;51452;47.698;19.050;2024-01-27T09:24:13;6.20;61.08
64937;SHT30;51452;47.698;19.050;2024-01-27T09:26:38;6.18;61.60
64937;SHT30;51452;47.698;19.050;2024-01-27T09:29:04;6.35;61.25
64937;SHT30;51452;47.698;19.050;2024-01-27T09:31:29;6.65;61.32
64937;SHT30;51452;47.698;19.050;2024-01-27T09:33:58;6.48;60.62
64937;SHT30;51452;47.698;19.050;2024-01-27T09:36:23;6.67;60.50
64937;SHT30;51452;47.698;19.050;2024-01-27T09:38:49;6.65;59.95
64937;SHT30;51452;47.698;19.050;2024-01-27T09:41:15;6.62;60.55
64937;SHT30;51452;47.698;19.050;2024-01-27T09:43:45;6.56;60.55
64937;SHT30;51452;47.698;19.050;2024-01-27T09:46:14;6.68;60.41
64937;SHT30;51452;47.698;19.050;2024-01-27T09:48:40;6.76;59.08
64937;SHT30;51452;47.698;19.050;2024-01-27T09:51:08;6.62;59.47
64937;SHT30;51452;47.698;19.050;2024-01-27T09:53:34;6.71;59.45
64937;SHT30;51452;47.698;19.050;2024-01-27T09:56:00;6.78;58.62
64937;SHT30;51452;47.698;19.050;2024-01-27T09:58:30;6.71;58.29
64937;SHT30;51452;47.698;19.050;2024-01-27T10:00:58;6.86;58.77
64937;SHT30;51452;47.698;19.050;2024-01-27T10:03:24;6.96;57.42
64937;SHT30;51452;47.698;19.050;2024-01-27T10:05:52;6.93;58.28
64937;SHT30;51452;47.698;19.050;2024-01-27T10:08:18;6.92;56.88
64937;SHT30;51452;47.698;19.050;2024-01-27T10:10:44;7.07;57.33
64937;SHT30;51452;47.698;19.050;2024-01-27T10:13:10;7.07;56.22
64937;SHT30;51452;47.698;19.050;2024-01-27T10:15:37;7.07;55.79
64937;SHT30;51452;47.698;19.050;2024-01-27T10:18:06;6.97;55.44
64937;SHT30;51452;47.698;19.050;2024-01-27T10:20:32;7.03;55.71
64937;SHT30;51452;47.698;19.050;2024-01-27T10:22:57;7.19;55.00
64937;SHT30;51452;47.698;19.050;2024-01-27T10:25:23;7.26;55.41
64937;SHT30;51452;47.698;19.050;2024-01-27T10:27:48;7.28;55.29
64937;SHT30;51452;47.698;19.050;2024-01-27T10:30:17;7.37;54.38
64937;SHT30;51452;47.698;19.050;2024-01-27T10:32:43;7.34;54.38
64937;SHT30;51452;47.698;19.050;2024-01-27T10:35:09;7.31;53.39
64937;SHT30;51452;47.698;19.050;2024-01-27T10:37:38;7.16;53.87
64937;SHT30;51452;47.698;19.050;2024-01-27T10:40:08;7.19;53.02
64937;SHT30;51452;47.698;19.050;2024-01-27T10:42:35;7.14;53.81
64937;SHT30;51452;47.698;19.050;2024-01-27T10:45:01;7.14;53.90
64937;SHT30;51452;47.698;19.050;2024-01-27T10:47:28;7.20;53.81
64937;SHT30;51452;47.698;19.050;2024-01-27T10:49:59;7.10;53.46
64937;SHT30;51452;47.698;19.050;2024-01-27T10:52:29;7.16;53.72
64937;SHT30;51452;47.698;19.050;2024-01-27T10:54:59;7.17;53.38
64937;SHT30;51452;47.698;19.050;2024-01-27T10:57:26;7.21;53.51
64937;SHT30;51452;47.698;19.050;2024-01-27T10:59:53;7.41;53.14
64937;SHT30;51452;47.698;19.050;2024-01-27T11:02:19;7.57;52.45
64937;SHT30;51452;47.698;19.050;2024-01-27T11:04:45;7.44;53.23
64937;SHT30;51452;47.698;19.050;2024-01-27T11:07:13;7.31;52.72
64937;SHT30;51452;47.698;19.050;2024-01-27T11:09:39;7.28;53.39
64937;SHT30;51452;47.698;19.050;2024-01-27T11:12:05;6.96;52.62
64937;SHT30;51452;47.698;19.050;2024-01-27T11:14:31;6.79;53.44
64937;SHT30;51452;47.698;19.050;2024-01-27T11:16:57;6.81;54.31
64937;SHT30;51452;47.698;19.050;2024-01-27T11:19:23;6.64;53.42
64937;SHT30;51452;47.698;19.050;2024-01-27T11:21:59;6.62;53.80
64937;SHT30;51452;47.698;19.050;2024-01-27T11:24:26;6.55;53.55
64937;SHT30;51452;47.698;19.050;2024-01-27T11:27:00;6.44;54.22
64937;SHT30;51452;47.698;19.050;2024-01-27T11:29:26;6.37;54.29
64937;SHT30;51452;47.698;19.050;2024-01-27T11:32:00;6.42;54.93
64937;SHT30;51452;47.698;19.050;2024-01-27T11:34:25;6.44;54.79
64937;SHT30;51452;47.698;19.050;2024-01-27T11:36:51;6.49;54.65
64937;SHT30;51452;47.698;19.050;2024-01-27T11:39:27;6.56;54.37
64937;SHT30;51452;47.698;19.050;2024-01-27T11:41:53;6.72;53.50
64937;SHT30;51452;47.698;19.050;2024-01-27T11:44:29;6.76;53.38
64937;SHT30;51452;47.698;19.050;2024-01-27T11:46:54;6.97;53.35
64937;SHT30;51452;47.698;19.050;2024-01-27T11:49:19;7.03;52.96
64937;SHT30;51452;47.698;19.050;2024-01-27T11:51:45;7.04;52.25
64937;SHT30;51452;47.698;19.050;2024-01-27T11:54:10;7.04;52.92
64937;SHT30;51452;47.698;19.050;2024-01-27T11:56:36;7.00;52.39
64937;SHT30;51452;47.698;19.050;2024-01-27T11:59:01;6.97;53.14
64937;SHT30;51452;47.698;19.050;2024-01-27T12:01:27;6.97;53.12
64937;SHT30;51452;47.698;19.050;2024-01-27T12:03:53;6.95;53.25
64937;SHT30;51452;47.698;19.050;2024-01-27T12:06:18;6.89;53.62
64937;SHT30;51452;47.698;19.050;2024-01-27T12:08:44;6.86;52.80
64937;SHT30;51452;47.698;19.050;2024-01-27T12:11:13;7.12;52.63
64937;SHT30;51452;47.698;19.050;2024-01-27T12:13:39;7.12;52.47
64937;SHT30;51452;47.698;19.050;2024-01-27T12:16:05;6.95;52.15
64937;SHT30;51452;47.698;19.050;2024-01-27T12:18:31;7.06;53.15
64937;SHT30;51452;47.698;19.050;2024-01-27T12:20:57;6.85;52.42
64937;SHT30;51452;47.698;19.050;2024-01-27T12:23:22;6.76;53.34
64937;SHT30;51452;47.698;19.050;2024-01-27T12:25:55;6.86;53.36
64937;SHT30;51452;47.698;19.050;2024-01-27T12:28:22;6.78;53.55
64937;SHT30;51452;47.698;19.050;2024-01-27T12:30:54;6.81;53.64
64937;SHT30;51452;47.698;19.050;2024-01-27T12:33:20;6.82;53.39
64937;SHT30;51452;47.698;19.050;2024-01-27T12:35:50;6.85;54.22
64937;SHT30;51452;47.698;19.050;2024-01-27T12:38:17;6.69;53.48
64937;SHT30;51452;47.698;19.050;2024-01-27T12:40:46;6.64;53.36
64937;SHT30;51452;47.698;19.050;2024-01-27T12:43:12;6.64;53.97
64937;SHT30;51452;47.698;19.050;2024-01-27T12:45:37;6.49;54.14
64937;SHT30;51452;47.698;19.050;2024-01-27T12:48:03;6.68;54.70
64937;SHT30;51452;47.698;19.050;2024-01-27T12:50:31;6.81;54.51
64937;SHT30;51452;47.698;19.050;2024-01-27T12:52:57;6.97;54.59
64937;SHT30;51452;47.698;19.050;2024-01-27T12:55:22;6.92;54.30
64937;SHT30;51452;47.698;19.050;2024-01-27T12:57:48;6.97;54.41
64937;SHT30;51452;47.698;19.050;2024-01-27T13:00:14;6.99;54.70
64937;SHT30;51452;47.698;19.050;2024-01-27T13:02:40;7.04;54.43
64937;SHT30;51452;47.698;19.050;2024-01-27T13:05:05;7.03;54.78
64937;SHT30;51452;47.698;19.050;2024-01-27T13:07:31;6.79;54.91
64937;SHT30;51452;47.698;19.050;2024-01-27T13:09:57;6.76;54.72
64937;SHT30;51452;47.698;19.050;2024-01-27T13:12:23;6.68;55.04
64937;SHT30;51452;47.698;19.050;2024-01-27T13:14:48;6.69;54.78
64937;SHT30;51452;47.698;19.050;2024-01-27T13:17:14;6.67;55.11
64937;SHT30;51452;47.698;19.050;2024-01-27T13:19:40;6.67;55.37
64937;SHT30;51452;47.698;19.050;2024-01-27T13:22:06;6.65;55.04
64937;SHT30;51452;47.698;19.050;2024-01-27T13:24:32;6.58;55.48
64937;SHT30;51452;47.698;19.050;2024-01-27T13:26:57;6.56;55.74
64937;SHT30;51452;47.698;19.050;2024-01-27T13:29:23;6.61;55.83
64937;SHT30;51452;47.698;19.050;2024-01-27T13:31:49;6.68;55.88
64937;SHT30;51452;47.698;19.050;2024-01-27T13:34:15;6.52;55.26
64937;SHT30;51452;47.698;19.050;2024-01-27T13:36:40;6.55;55.59
64937;SHT30;51452;47.698;19.050;2024-01-27T13:39:06;6.65;55.95
64937;SHT30;51452;47.698;19.050;2024-01-27T13:41:31;6.72;55.25
64937;SHT30;51452;47.698;19.050;2024-01-27T13:43:57;6.71;55.04
64937;SHT30;51452;47.698;19.050;2024-01-27T13:46:22;6.76;55.24
64937;SHT30;51452;47.698;19.050;2024-01-27T13:48:48;6.62;55.08
64937;SHT30;51452;47.698;19.050;2024-01-27T13:51:14;6.68;55.33
64937;SHT30;51452;47.698;19.050;2024-01-27T13:53:40;6.48;55.59
64937;SHT30;51452;47.698;19.050;2024-01-27T13:56:06;6.35;55.61
64937;SHT30;51452;47.698;19.050;2024-01-27T13:58:32;6.28;55.79
64937;SHT30;51452;47.698;19.050;2024-01-27T14:00:58;6.21;56.18
64937;SHT30;51452;47.698;19.050;2024-01-27T14:03:26;6.18;56.42
64937;SHT30;51452;47.698;19.050;2024-01-27T14:05:52;6.20;56.68
64937;SHT30;51452;47.698;19.050;2024-01-27T14:08:17;6.27;56.59
64937;SHT30;51452;47.698;19.050;2024-01-27T14:10:44;6.17;56.71
64937;SHT30;51452;47.698;19.050;2024-01-27T14:13:10;6.13;57.05
64937;SHT30;51452;47.698;19.050;2024-01-27T14:15:36;6.14;57.22
64937;SHT30;51452;47.698;19.050;2024-01-27T14:18:02;6.13;57.54
64937;SHT30;51452;47.698;19.050;2024-01-27T14:20:29;6.11;57.75
64937;SHT30;51452;47.698;19.050;2024-01-27T14:22:55;6.10;58.91
64937;SHT30;51452;47.698;19.050;2024-01-27T14:25:20;6.09;58.91
64937;SHT30;51452;47.698;19.050;2024-01-27T14:27:46;6.07;59.32
64937;SHT30;51452;47.698;19.050;2024-01-27T14:30:11;6.07;58.64
64937;SHT30;51452;47.698;19.050;2024-01-27T14:32:38;6.04;58.56
64937;SHT30;51452;47.698;19.050;2024-01-27T14:35:04;6.13;58.15
64937;SHT30;51452;47.698;19.050;2024-01-27T14:37:32;6.00;58.42
64937;SHT30;51452;47.698;19.050;2024-01-27T14:39:57;5.89;58.57
64937;SHT30;51452;47.698;19.050;2024-01-27T14:42:25;5.94;58.64
64937;SHT30;51452;47.698;19.050;2024-01-27T14:44:51;6.03;58.85
64937;SHT30;51452;47.698;19.050;2024-01-27T14:47:20;6.07;58.46
64937;SHT30;51452;47.698;19.050;2024-01-27T14:49:45;6.01;58.29
64937;SHT30;51452;47.698;19.050;2024-01-27T14:52:11;5.97;58.48
64937;SHT30;51452;47.698;19.050;2024-01-27T14:54:39;5.93;58.42
64937;SHT30;51452;47.698;19.050;2024-01-27T14:57:05;5.86;58.56
64937;SHT30;51452;47.698;19.050;2024-01-27T14:59:34;5.73;58.67
64937;SHT30;51452;47.698;19.050;2024-01-27T15:02:05;5.77;58.83
64937;SHT30;51452;47.698;19.050;2024-01-27T15:04:32;5.73;58.70
64937;SHT30;51452;47.698;19.050;2024-01-27T15:06:58;5.77;58.75
64937;SHT30;51452;47.698;19.050;2024-01-27T15:09:24;5.69;58.81
64937;SHT30;51452;47.698;19.050;2024-01-27T15:11:50;5.67;58.55
64937;SHT30;51452;47.698;19.050;2024-01-27T15:14:15;5.65;58.66
64937;SHT30;51452;47.698;19.050;2024-01-27T15:16:42;5.70;58.69
64937;SHT30;51452;47.698;19.050;2024-01-27T15:19:07;5.58;58.97
64937;SHT30;51452;47.698;19.050;2024-01-27T15:21:33;5.71;59.31
64937;SHT30;51452;47.698;19.050;2024-01-27T15:23:58;5.70;59.11